Time;durP1;ratioP1;P1;durP2;ratioP2;P2;SDS_P1;SDS_P2;PMS_P1;PMS_P2;Temp;Humidity;BMP_temperature;BMP_pressure;BME280_temperature;BME280_humidity;BME280_pressure;Samples;Min_cycle;Max_cycle;Signal;HPM_P1;HPM_P2
2022/08/09 00:02:31;;;;;;;0.43;0.40;;;17.90;99.90;;;;;;6179518;23;20079;-86
2022/08/09 00:04:59;;;;;;;0.32;0.32;;;17.90;99.90;;;;;;6185124;23;20028;-86
2022/08/09 00:07:46;;;;;;;0.35;0.35;;;17.80;99.90;;;;;;6197140;23;20078;-91
2022/08/09 00:10:13;;;;;;;0.40;0.38;;;17.80;99.90;;;;;;6179966;23;20024;-93
2022/08/09 00:12:47;;;;;;;0.50;0.40;;;17.80;99.90;;;;;;6182617;23;20103;-89
2022/08/09 00:15:21;;;;;;;0.60;0.35;;;17.80;99.90;;;;;;6179085;23;20028;-92
2022/08/09 00:18:08;;;;;;;0.25;0.25;;;17.80;99.90;;;;;;6186583;23;20467;-91
2022/08/09 00:20:38;;;;;;;0.88;0.47;;;17.80;99.90;;;;;;6173318;23;20020;-89
2022/08/09 00:23:14;;;;;;;0.75;0.30;;;17.70;99.90;;;;;;6180933;23;20016;-88
2022/08/09 00:26:01;;;;;;;0.60;0.47;;;17.70;99.90;;;;;;6189557;23;20020;-88
2022/08/09 00:28:31;;;;;;;0.40;0.30;;;17.60;99.90;;;;;;6179554;23;20020;-88
2022/08/09 00:31:01;;;;;;;0.43;0.40;;;17.60;99.90;;;;;;6175852;23;20036;-89
2022/08/09 00:33:49;;;;;;;0.70;0.52;;;17.50;99.90;;;;;;6186778;23;20016;-87
2022/08/09 00:36:21;;;;;;;0.38;0.38;;;17.50;99.90;;;;;;6174747;23;20039;-88
2022/08/09 00:38:56;;;;;;;0.85;0.40;;;17.50;99.90;;;;;;6173820;23;20095;-87
2022/08/09 00:41:23;;;;;;;0.47;0.47;;;17.40;99.90;;;;;;6167475;23;20020;-88
2022/08/09 00:44:10;;;;;;;0.60;0.40;;;17.30;99.90;;;;;;6180110;23;20026;-87
2022/08/09 00:46:54;;;;;;;0.60;0.50;;;17.30;99.90;;;;;;6176917;23;20027;-86
2022/08/09 00:49:34;;;;;;;0.30;0.30;;;17.20;99.90;;;;;;6173204;23;20167;-87
2022/08/09 00:52:03;;;;;;;0.50;0.30;;;17.20;99.90;;;;;;6167666;23;20020;-87
2022/08/09 00:54:41;;;;;;;0.90;0.50;;;17.20;99.90;;;;;;6173664;23;20024;-86
2022/08/09 00:57:10;;;;;;;0.30;0.30;;;17.10;99.90;;;;;;6167075;23;20043;-85
2022/08/09 00:59:41;;;;;;;0.40;0.40;;;17.10;99.90;;;;;;6167183;23;20078;-87
2022/08/09 01:02:20;;;;;;;0.47;0.47;;;17.10;99.90;;;;;;6167866;23;20016;-87
2022/08/09 01:05:04;;;;;;;0.65;0.47;;;17.10;99.90;;;;;;6164455;23;20024;-87
2022/08/09 01:07:45;;;;;;;0.47;0.40;;;17.00;99.90;;;;;;6194823;23;20020;-87
2022/08/09 01:10:35;;;;;;;0.47;0.45;;;17.00;99.90;;;;;;6242748;23;20031;-86
2022/08/09 01:13:29;;;;;;;0.40;0.40;;;17.00;99.90;;;;;;6168310;23;20020;-85
2022/08/09 01:16:19;;;;;;;0.30;0.30;;;16.90;99.90;;;;;;6221469;23;20412;-86
2022/08/09 01:18:47;;;;;;;0.75;0.70;;;16.80;99.90;;;;;;6168752;23;20046;-87
2022/08/09 01:21:37;;;;;;;0.40;0.40;;;16.80;99.90;;;;;;6177874;23;20024;-87
2022/08/09 01:24:25;;;;;;;0.40;0.40;;;16.80;99.90;;;;;;6196856;23;20083;-86
2022/08/09 01:27:09;;;;;;;0.40;0.30;;;16.80;99.90;;;;;;6244118;23;20028;-86
2022/08/09 01:29:43;;;;;;;0.70;0.50;;;16.70;99.90;;;;;;6171737;23;20068;-86
2022/08/09 01:41:31;;;;;;;0.80;0.47;;;16.70;99.90;;;;;;6225989;23;20266;-90
2022/08/09 01:44:00;;;;;;;0.95;0.47;;;16.60;99.90;;;;;;6176735;23;20016;-89
2022/08/09 01:57:16;;;;;;;0.30;0.30;;;16.40;99.90;;;;;;6237001;22;20094;-86
2022/08/09 01:59:48;;;;;;;0.30;0.30;;;16.40;99.90;;;;;;6217093;23;20021;-87
2022/08/09 02:02:22;;;;;;;0.60;0.57;;;16.40;99.90;;;;;;6165969;23;20375;-86
2022/08/09 02:04:58;;;;;;;0.30;0.30;;;16.40;99.90;;;;;;6171878;23;20214;-88
2022/08/09 02:07:31;;;;;;;0.50;0.50;;;16.40;99.90;;;;;;6168728;23;20047;-86
2022/08/09 02:10:23;;;;;;;0.65;0.40;;;16.30;99.90;;;;;;6177980;23;20395;-90
2022/08/09 02:12:56;;;;;;;0.30;0.30;;;16.30;99.90;;;;;;6171852;23;20095;-88
2022/08/09 02:15:24;;;;;;;0.38;0.38;;;16.30;99.90;;;;;;6193209;23;20161;-87
2022/08/09 02:18:02;;;;;;;0.40;0.30;;;16.20;99.90;;;;;;6174277;23;20016;-86
2022/08/09 02:20:42;;;;;;;0.52;0.38;;;16.10;99.90;;;;;;6195352;23;20017;-87
2022/08/09 02:23:17;;;;;;;0.65;0.40;;;16.10;99.90;;;;;;6168844;23;20423;-88
2022/08/09 02:25:46;;;;;;;0.40;0.40;;;16.10;99.90;;;;;;6193750;23;20023;-87
2022/08/09 02:28:29;;;;;;;0.50;0.50;;;16.10;99.90;;;;;;6174204;23;20016;-88
2022/08/09 02:31:05;;;;;;;0.43;0.40;;;16.10;99.90;;;;;;6192134;23;20062;-91
2022/08/09 02:33:37;;;;;;;0.32;0.30;;;16.10;99.90;;;;;;6170034;23;20436;-90
2022/08/09 02:36:34;;;;;;;0.40;0.38;;;16.10;99.90;;;;;;6181934;23;20020;-89
2022/08/09 02:39:06;;;;;;;0.30;0.30;;;16.00;99.90;;;;;;6169903;23;20031;-90
2022/08/09 02:41:52;;;;;;;0.63;0.40;;;16.10;99.90;;;;;;6177391;23;20495;-90
2022/08/09 02:44:22;;;;;;;0.43;0.43;;;16.10;99.90;;;;;;6193475;23;20047;-89
2022/08/09 02:46:56;;;;;;;0.35;0.28;;;16.10;99.90;;;;;;6174046;23;20020;-92
2022/08/09 02:49:23;;;;;;;0.43;0.43;;;16.00;99.90;;;;;;6198642;23;20024;-88
2022/08/09 02:52:04;;;;;;;0.93;0.40;;;16.00;99.90;;;;;;6185856;23;20095;-86
2022/08/09 02:54:33;;;;;;;0.90;0.70;;;16.00;99.90;;;;;;6171954;23;20324;-86
2022/08/09 02:57:01;;;;;;;0.30;0.30;;;16.00;99.90;;;;;;6161821;23;20075;-87
2022/08/09 02:59:48;;;;;;;0.50;0.45;;;16.00;99.90;;;;;;6171114;23;20107;-87
2022/08/09 03:02:36;;;;;;;0.80;0.55;;;15.90;99.90;;;;;;6169532;23;20056;-87
2022/08/09 03:05:12;;;;;;;0.68;0.40;;;15.90;99.90;;;;;;6166240;23;20040;-86
2022/08/09 03:07:42;;;;;;;0.30;0.30;;;15.80;99.90;;;;;;6163722;23;20487;-86
2022/08/09 03:10:21;;;;;;;0.50;0.50;;;15.70;99.90;;;;;;6167267;23;20040;-87
2022/08/09 03:12:48;;;;;;;0.65;0.40;;;15.70;99.90;;;;;;6162158;23;20392;-87
2022/08/09 03:15:21;;;;;;;0.30;0.30;;;15.70;99.90;;;;;;6163288;23;20051;-88
2022/08/09 03:17:49;;;;;;;0.77;0.52;;;15.70;99.90;;;;;;6161652;23;20039;-87
2022/08/09 03:20:25;;;;;;;0.38;0.38;;;15.70;99.90;;;;;;6188847;23;20407;-88
2022/08/09 03:22:55;;;;;;;0.45;0.30;;;15.60;99.90;;;;;;6163379;23;20021;-88
2022/08/09 03:25:41;;;;;;;1.25;0.50;;;15.60;99.90;;;;;;6169714;23;20020;-87
2022/08/09 03:28:28;;;;;;;0.60;0.47;;;15.60;99.90;;;;;;6170362;23;20059;-88
2022/08/09 03:30:55;;;;;;;0.50;0.50;;;15.60;99.90;;;;;;6161144;23;20103;-87
2022/08/09 03:33:22;;;;;;;0.28;0.28;;;15.50;99.90;;;;;;6184854;23;20027;-87
2022/08/09 03:35:50;;;;;;;0.32;0.30;;;15.50;99.90;;;;;;6160804;23;20027;-88
2022/08/09 03:38:38;;;;;;;0.30;0.30;;;15.50;99.90;;;;;;6170634;23;20024;-87
2022/08/09 03:41:10;;;;;;;0.30;0.30;;;15.40;99.90;;;;;;6163262;23;20044;-87
2022/08/09 03:43:45;;;;;;;0.60;0.40;;;15.40;99.90;;;;;;6163728;23;20035;-87
2022/08/09 03:46:32;;;;;;;0.30;0.30;;;15.50;99.90;;;;;;6171309;23;20052;-87
2022/08/09 03:49:01;;;;;;;0.63;0.50;;;15.40;99.90;;;;;;6161454;23;20024;-87
2022/08/09 03:51:30;;;;;;;0.43;0.40;;;15.40;99.90;;;;;;6163261;23;20092;-87
2022/08/09 03:54:17;;;;;;;0.30;0.30;;;15.40;99.90;;;;;;6169483;23;20111;-87
2022/08/09 03:56:55;;;;;;;0.50;0.40;;;15.30;99.90;;;;;;6166655;23;20191;-86
2022/08/09 03:59:23;;;;;;;0.35;0.30;;;15.30;99.90;;;;;;6162289;23;20077;-86
2022/08/09 04:02:09;;;;;;;0.82;0.43;;;15.30;99.90;;;;;;6172283;23;20136;-86
2022/08/09 04:04:36;;;;;;;0.45;0.45;;;15.30;99.90;;;;;;6161389;23;20016;-86
2022/08/09 04:07:04;;;;;;;0.77;0.47;;;15.30;99.90;;;;;;6161664;23;20028;-86
2022/08/09 04:09:31;;;;;;;0.40;0.40;;;15.30;99.90;;;;;;6161373;23;20017;-86
2022/08/09 04:12:27;;;;;;;0.98;0.50;;;15.30;99.90;;;;;;6168996;23;20107;-85
2022/08/09 04:14:57;;;;;;;0.68;0.40;;;15.30;99.90;;;;;;6211066;23;20090;-88
2022/08/09 04:17:28;;;;;;;0.93;0.65;;;15.30;99.90;;;;;;6163587;23;20027;-88
2022/08/09 04:19:55;;;;;;;0.57;0.50;;;15.30;99.90;;;;;;6162489;23;20020;-89
2022/08/09 04:22:22;;;;;;;0.45;0.40;;;15.20;99.90;;;;;;6162243;23;20542;-89
2022/08/09 04:24:53;;;;;;;0.30;0.30;;;15.20;99.90;;;;;;6164072;23;20028;-88
2022/08/09 04:27:20;;;;;;;0.65;0.50;;;15.10;99.90;;;;;;6161978;23;20676;-89
2022/08/09 04:29:48;;;;;;;0.68;0.43;;;15.10;99.90;;;;;;6163563;23;20073;-89
2022/08/09 04:32:16;;;;;;;0.77;0.30;;;15.10;99.90;;;;;;6165092;23;20547;-88
2022/08/09 04:35:04;;;;;;;1.08;0.65;;;15.10;99.90;;;;;;6171133;23;20464;-88
2022/08/09 04:37:34;;;;;;;1.02;0.60;;;15.10;99.90;;;;;;6167974;23;20047;-88
2022/08/09 04:40:12;;;;;;;0.57;0.55;;;15.10;99.90;;;;;;6173262;23;20032;-85
2022/08/09 04:42:54;;;;;;;2.35;0.50;;;15.00;99.90;;;;;;6169983;23;20040;-90
2022/08/09 04:45:22;;;;;;;0.70;0.50;;;15.10;99.90;;;;;;6186111;23;20108;-87
2022/08/09 04:47:50;;;;;;;0.50;0.40;;;15.20;99.90;;;;;;6159162;23;20020;-87
2022/08/09 04:50:29;;;;;;;0.90;0.60;;;15.20;99.90;;;;;;6165416;23;20020;-88
2022/08/09 04:53:06;;;;;;;0.22;0.22;;;15.10;99.90;;;;;;6186736;23;20028;-87
2022/08/09 04:55:40;;;;;;;0.88;0.50;;;15.10;99.90;;;;;;6163410;23;20301;-87
2022/08/09 04:58:28;;;;;;;0.45;0.40;;;15.10;99.90;;;;;;6166482;23;20016;-86
2022/08/09 05:00:59;;;;;;;0.30;0.30;;;15.10;99.90;;;;;;6163724;23;20404;-87
2022/08/09 05:03:26;;;;;;;0.40;0.40;;;15.00;99.90;;;;;;6160900;23;20072;-89
2022/08/09 05:06:10;;;;;;;0.52;0.40;;;15.10;99.90;;;;;;6169023;23;20123;-88
2022/08/09 05:08:47;;;;;;;0.60;0.45;;;15.10;99.90;;;;;;6173935;23;20024;-89
2022/08/09 05:11:15;;;;;;;0.80;0.57;;;15.10;99.90;;;;;;6195696;23;20028;-92
2022/08/09 05:13:42;;;;;;;0.85;0.60;;;15.10;99.90;;;;;;6165709;23;20032;-90
2022/08/09 05:16:09;;;;;;;0.85;0.60;;;15.10;99.90;;;;;;6164798;23;20092;-91
2022/08/09 05:18:40;;;;;;;0.90;0.77;;;15.20;99.90;;;;;;6166953;23;20017;-87
2022/08/09 05:21:27;;;;;;;1.08;0.70;;;15.30;99.90;;;;;;6202452;23;20016;-88
2022/08/09 05:23:57;;;;;;;1.33;0.70;;;15.30;99.90;;;;;;6174632;23;20021;-87
2022/08/09 05:26:28;;;;;;;0.82;0.60;;;15.40;99.90;;;;;;6194358;23;20086;-91
2022/08/09 05:29:18;;;;;;;1.25;0.80;;;15.40;99.90;;;;;;6173236;23;20032;-90
2022/08/09 05:31:48;;;;;;;0.57;0.50;;;15.50;99.90;;;;;;6189731;23;20074;-91
2022/08/09 05:34:27;;;;;;;0.77;0.70;;;15.50;99.90;;;;;;6168612;23;20099;-91
2022/08/09 05:37:03;;;;;;;0.60;0.60;;;15.50;99.90;;;;;;6163233;23;20531;-87
2022/08/09 05:39:38;;;;;;;0.43;0.43;;;15.50;99.90;;;;;;6161802;23;20035;-89
2022/08/09 05:42:09;;;;;;;0.75;0.63;;;15.60;99.90;;;;;;6162717;23;20063;-88
2022/08/09 05:44:51;;;;;;;0.73;0.50;;;15.60;99.90;;;;;;6163648;23;20039;-88
2022/08/09 05:47:21;;;;;;;0.63;0.60;;;15.70;99.90;;;;;;6160084;23;20099;-88
2022/08/09 05:49:50;;;;;;;0.70;0.60;;;15.70;99.90;;;;;;6165178;23;20314;-91
2022/08/09 05:52:38;;;;;;;0.38;0.30;;;15.70;99.90;;;;;;6176042;23;20020;-88
2022/08/09 05:55:08;;;;;;;0.73;0.57;;;15.80;99.90;;;;;;6171349;23;20067;-89
2022/08/09 05:57:49;;;;;;;0.70;0.50;;;15.90;99.90;;;;;;6139157;23;20429;-91
2022/08/09 06:00:29;;;;;;;0.45;0.45;;;16.00;99.90;;;;;;6134362;23;20083;-89
2022/08/09 06:03:00;;;;;;;0.30;0.30;;;16.10;99.90;;;;;;6134828;23;20100;-89
2022/08/09 06:05:28;;;;;;;0.50;0.50;;;16.30;99.90;;;;;;6134855;23;20073;-91
2022/08/09 06:08:18;;;;;;;0.95;0.60;;;16.40;99.90;;;;;;6142941;23;20572;-90
2022/08/09 06:10:54;;;;;;;1.13;0.90;;;16.60;99.90;;;;;;6135898;23;20037;-89
2022/08/09 06:13:21;;;;;;;1.10;0.80;;;16.80;99.90;;;;;;6133440;23;20021;-92
2022/08/09 06:15:52;;;;;;;1.25;0.80;;;16.90;99.90;;;;;;6135064;23;20021;-88
2022/08/09 06:18:20;;;;;;;1.05;0.70;;;17.10;99.90;;;;;;6140368;23;20118;-90
2022/08/09 06:20:55;;;;;;;1.15;0.93;;;17.20;99.90;;;;;;6139113;23;20747;-89
2022/08/09 06:23:26;;;;;;;1.13;0.88;;;17.40;99.90;;;;;;6135809;23;20337;-90
2022/08/09 06:26:14;;;;;;;1.60;1.27;;;17.50;99.90;;;;;;6162928;23;20472;-88
2022/08/09 06:28:54;;;;;;;1.48;0.98;;;17.60;99.90;;;;;;6135037;23;20052;-89
2022/08/09 06:31:25;;;;;;;1.00;0.88;;;17.80;99.90;;;;;;6137184;23;20479;-89
2022/08/09 06:34:08;;;;;;;1.73;1.00;;;17.90;99.90;;;;;;6141565;23;20024;-88
2022/08/09 06:36:36;;;;;;;1.42;0.98;;;18.00;99.90;;;;;;6131586;23;20029;-89
2022/08/09 06:39:11;;;;;;;1.15;0.95;;;18.00;99.90;;;;;;6137967;23;20052;-88
2022/08/09 06:41:38;;;;;;;1.27;1.05;;;18.10;99.90;;;;;;6133342;23;20041;-89
2022/08/09 06:44:26;;;;;;;1.25;0.90;;;18.10;99.90;;;;;;6139657;23;20025;-87
2022/08/09 06:46:53;;;;;;;1.17;0.98;;;18.20;99.90;;;;;;6134275;23;20021;-90
2022/08/09 06:49:22;;;;;;;1.48;1.05;;;18.30;99.90;;;;;;6135070;23;20095;-88
2022/08/09 06:52:09;;;;;;;1.40;0.95;;;18.40;99.90;;;;;;6143041;23;20044;-89
2022/08/09 06:54:37;;;;;;;1.10;0.82;;;18.50;99.90;;;;;;6136026;23;20021;-88
2022/08/09 06:57:07;;;;;;;1.10;0.90;;;18.60;99.90;;;;;;6166351;23;20036;-89
2022/08/09 06:59:38;;;;;;;1.33;1.10;;;18.70;99.90;;;;;;6172720;23;20016;-88
2022/08/09 07:02:25;;;;;;;1.10;0.90;;;18.80;99.90;;;;;;6187299;23;20028;-88
2022/08/09 07:04:56;;;;;;;0.85;0.80;;;19.00;99.90;;;;;;6175796;23;20452;-89
2022/08/09 07:07:25;;;;;;;0.98;0.88;;;19.10;99.90;;;;;;6174541;23;20384;-89
2022/08/09 07:10:12;;;;;;;1.35;0.93;;;19.20;99.90;;;;;;6184111;23;20086;-89
2022/08/09 07:12:55;;;;;;;1.20;1.10;;;19.30;99.90;;;;;;6180578;23;20020;-89
2022/08/09 07:15:24;;;;;;;0.90;0.82;;;19.40;99.90;;;;;;6171228;23;20091;-90
2022/08/09 07:18:12;;;;;;;1.70;1.00;;;19.50;99.90;;;;;;6182770;23;20062;-88
2022/08/09 07:20:40;;;;;;;1.33;1.13;;;19.50;99.90;;;;;;6168697;23;20020;-89
2022/08/09 07:23:11;;;;;;;1.48;1.23;;;19.50;99.90;;;;;;6167762;23;20084;-87
2022/08/09 07:25:45;;;;;;;1.27;1.00;;;19.40;99.90;;;;;;6171178;23;20087;-89
2022/08/09 07:28:12;;;;;;;1.55;1.08;;;19.40;99.90;;;;;;6174134;23;20024;-87
2022/08/09 07:30:53;;;;;;;1.20;1.10;;;19.60;99.90;;;;;;6176030;23;20028;-88
2022/08/09 07:33:21;;;;;;;2.22;1.40;;;19.60;99.90;;;;;;6163039;23;20033;-88
2022/08/09 07:35:52;;;;;;;1.50;1.30;;;19.60;99.90;;;;;;6162796;23;20024;-90
2022/08/09 07:38:20;;;;;;;1.40;1.10;;;19.70;99.90;;;;;;6164708;23;20026;-90
2022/08/09 07:40:49;;;;;;;1.35;1.20;;;19.60;99.90;;;;;;6163647;23;20012;-90
2022/08/09 07:43:36;;;;;;;1.15;1.02;;;19.60;99.90;;;;;;6173875;23;20043;-90
2022/08/09 07:46:16;;;;;;;1.52;1.25;;;19.60;99.90;;;;;;6168348;23;20685;-89
2022/08/09 07:48:46;;;;;;;1.75;1.50;;;19.60;99.90;;;;;;6162856;23;20165;-89
2022/08/09 07:51:24;;;;;;;2.10;1.75;;;19.70;99.90;;;;;;6171050;23;20035;-90
2022/08/09 07:54:12;;;;;;;1.70;1.15;;;19.70;99.90;;;;;;6177305;23;20111;-88
2022/08/09 07:56:41;;;;;;;1.60;1.17;;;19.70;99.90;;;;;;6163361;23;20024;-88
2022/08/09 07:59:19;;;;;;;1.70;1.30;;;19.70;99.90;;;;;;6167576;23;20023;-90
2022/08/09 08:01:59;;;;;;;2.10;1.38;;;19.70;99.90;;;;;;6171027;23;20369;-89
2022/08/09 08:04:26;;;;;;;1.10;1.00;;;19.70;99.90;;;;;;6161473;23;20050;-88
2022/08/09 08:06:58;;;;;;;1.90;1.00;;;19.70;99.90;;;;;;6163993;23;20039;-88
2022/08/09 08:09:45;;;;;;;1.00;0.90;;;19.80;99.90;;;;;;6174707;23;20031;-88
2022/08/09 08:12:21;;;;;;;1.00;0.90;;;19.70;99.90;;;;;;6165002;23;20134;-88
2022/08/09 08:14:55;;;;;;;1.35;0.82;;;19.80;99.90;;;;;;6165785;23;20092;-89
2022/08/09 08:17:23;;;;;;;1.95;1.20;;;19.90;99.90;;;;;;6163598;23;20081;-88
2022/08/09 08:20:10;;;;;;;1.20;0.88;;;20.00;99.90;;;;;;6183632;23;20144;-95
2022/08/09 08:22:39;;;;;;;0.93;0.90;;;20.10;99.90;;;;;;6163232;23;20422;-88
2022/08/09 08:25:07;;;;;;;0.70;0.70;;;20.20;99.90;;;;;;6162172;23;20405;-89
2022/08/09 08:27:39;;;;;;;;;;;20.40;99.90;;;;;;6163934;23;20016;-89
2022/08/09 08:30:09;;;;;;;1.48;0.85;;;20.40;99.90;;;;;;6185925;23;19943;-89
2022/08/09 08:32:37;;;;;;;0.73;0.60;;;20.40;99.90;;;;;;6161892;23;20020;-89
2022/08/09 08:35:21;;;;;;;1.27;0.90;;;20.50;99.90;;;;;;6175930;23;20055;-89
2022/08/09 08:37:55;;;;;;;1.63;0.90;;;20.40;99.90;;;;;;6193967;23;20337;-89
2022/08/09 08:40:31;;;;;;;0.77;0.77;;;20.50;99.90;;;;;;6172858;23;20030;-88
2022/08/09 08:43:00;;;;;;;0.90;0.70;;;20.40;99.90;;;;;;6162582;23;20024;-90
2022/08/09 08:45:36;;;;;;;0.70;0.70;;;20.40;99.90;;;;;;6163020;23;20365;-88
2022/08/09 08:48:16;;;;;;;0.65;0.60;;;20.50;99.90;;;;;;6171427;23;20134;-89
2022/08/09 08:50:46;;;;;;;0.50;0.47;;;20.50;99.90;;;;;;6164594;23;20068;-89
2022/08/09 08:53:20;;;;;;;0.70;0.60;;;20.50;99.90;;;;;;6163856;23;20016;-89
2022/08/09 08:55:48;;;;;;;0.73;0.60;;;20.60;99.90;;;;;;6165947;23;20048;-90
2022/08/09 08:58:18;;;;;;;0.55;0.55;;;20.60;99.90;;;;;;6166434;23;20505;-89
2022/08/09 09:00:53;;;;;;;0.32;0.30;;;20.60;99.90;;;;;;6165055;23;20070;-89
2022/08/09 09:03:23;;;;;;;0.43;0.40;;;20.60;99.90;;;;;;6164718;23;20031;-88
2022/08/09 09:06:04;;;;;;;0.65;0.50;;;20.60;99.90;;;;;;6172376;23;20027;-89
2022/08/09 09:08:33;;;;;;;0.30;0.30;;;20.70;99.90;;;;;;6166751;23;20470;-89
2022/08/09 09:11:07;;;;;;;0.32;0.32;;;20.70;99.90;;;;;;6169525;23;20110;-90
2022/08/09 09:13:43;;;;;;;0.38;0.38;;;20.70;99.90;;;;;;6169405;23;20039;-88
2022/08/09 09:16:25;;;;;;;0.15;0.15;;;20.80;99.90;;;;;;6171543;23;20067;-88
2022/08/09 09:19:04;;;;;;;0.80;0.50;;;20.90;99.90;;;;;;6168589;23;20024;-89
2022/08/09 09:22:07;;;;;;;0.60;0.40;;;20.90;99.90;;;;;;6176422;23;20042;-90
2022/08/09 09:24:39;;;;;;;0.40;0.40;;;20.90;99.90;;;;;;6191170;23;20031;-90
2022/08/09 09:27:11;;;;;;;0.60;0.50;;;20.90;99.90;;;;;;6190428;23;20019;-89
2022/08/09 09:30:07;;;;;;;0.30;0.30;;;21.00;99.90;;;;;;6179000;23;20020;-89
2022/08/09 09:33:05;;;;;;;0.88;0.60;;;21.00;99.90;;;;;;6180497;23;20139;-90
2022/08/09 09:36:00;;;;;;;0.52;0.43;;;21.10;99.90;;;;;;6197423;23;20027;-89
2022/08/09 09:38:55;;;;;;;0.52;0.40;;;21.20;99.90;;;;;;6180539;23;20327;-90
2022/08/09 09:41:26;;;;;;;0.68;0.50;;;21.30;99.90;;;;;;6174152;23;20202;-93
2022/08/09 09:44:02;;;;;;;0.75;0.60;;;21.40;99.90;;;;;;6221235;23;20036;-88
2022/08/09 09:46:42;;;;;;;0.50;0.50;;;21.40;99.90;;;;;;6183111;23;20047;-90
2022/08/09 09:49:22;;;;;;;0.85;0.68;;;21.50;99.90;;;;;;6186456;23;20063;-90
2022/08/09 09:52:10;;;;;;;1.05;0.68;;;21.60;99.90;;;;;;6188553;23;20074;-91
2022/08/09 09:55:08;;;;;;;0.75;0.60;;;21.70;99.90;;;;;;6179224;23;20024;-90
2022/08/09 09:58:03;;;;;;;0.85;0.70;;;21.90;99.90;;;;;;6175811;23;20020;-90
2022/08/09 10:00:56;;;;;;;1.27;0.63;;;22.00;99.90;;;;;;6174288;23;20074;-89
2022/08/09 10:03:41;;;;;;;0.75;0.50;;;22.10;99.90;;;;;;6172335;23;20100;-90
2022/08/09 10:06:10;;;;;;;0.85;0.50;;;22.20;99.90;;;;;;6187277;23;20344;-91
2022/08/09 10:08:40;;;;;;;1.15;0.40;;;22.30;99.90;;;;;;6168697;23;20019;-92
2022/08/09 10:11:31;;;;;;;1.48;0.50;;;22.40;99.90;;;;;;6176915;23;20090;-88
2022/08/09 10:14:31;;;;;;;0.40;0.35;;;22.60;99.90;;;;;;6187545;23;20039;-90
2022/08/09 10:17:10;;;;;;;0.35;0.30;;;22.70;99.90;;;;;;6172222;23;20027;-88
2022/08/09 10:19:58;;;;;;;0.35;0.35;;;22.90;99.90;;;;;;6179059;23;20051;-93
2022/08/09 10:22:36;;;;;;;1.60;0.70;;;23.00;99.90;;;;;;6164909;23;20028;-93
2022/08/09 10:25:06;;;;;;;0.38;0.38;;;23.10;99.80;;;;;;6164369;23;20024;-96
2022/08/09 10:27:41;;;;;;;0.45;0.30;;;23.10;99.20;;;;;;6167775;23;20055;-94
2022/08/09 10:30:25;;;;;;;0.40;0.40;;;23.20;98.60;;;;;;6175972;23;20047;-91
2022/08/09 10:33:13;;;;;;;0.63;0.40;;;23.40;98.20;;;;;;6179080;23;20032;-95
2022/08/09 10:36:00;;;;;;;0.82;0.47;;;23.30;98.40;;;;;;6178817;23;20035;-93
2022/08/09 10:38:28;;;;;;;0.40;0.30;;;23.40;98.00;;;;;;6166575;23;20016;-96
2022/08/09 10:41:16;;;;;;;0.45;0.20;;;23.50;97.70;;;;;;6179749;23;20067;-93
2022/08/09 10:43:45;;;;;;;0.43;0.43;;;23.70;97.00;;;;;;6168486;23;20024;-93
2022/08/09 10:46:57;;;;;;;0.43;0.30;;;23.80;95.90;;;;;;6187721;23;20016;-90
2022/08/09 10:50:06;;;;;;;0.20;0.20;;;23.90;96.00;;;;;;6199724;23;20252;-89
2022/08/09 10:53:03;;;;;;;0.55;0.50;;;23.90;95.70;;;;;;6222614;23;20031;-93
2022/08/09 10:55:33;;;;;;;0.20;0.20;;;24.10;95.60;;;;;;6198095;23;20028;-93
2022/08/09 10:58:32;;;;;;;0.38;0.38;;;24.10;94.90;;;;;;6192079;23;20126;-92
2022/08/09 11:01:02;;;;;;;0.40;0.40;;;24.20;94.50;;;;;;6174765;23;20047;-92
2022/08/09 11:04:19;;;;;;;0.32;0.32;;;24.30;94.20;;;;;;6181425;23;20020;-89
2022/08/09 11:07:01;;;;;;;0.40;0.30;;;24.40;93.80;;;;;;6201583;23;20010;-89
2022/08/09 11:09:38;;;;;;;1.58;0.70;;;24.50;93.40;;;;;;6215712;23;20451;-90
2022/08/09 11:12:27;;;;;;;0.30;0.30;;;24.50;93.50;;;;;;6214403;23;20024;-88
2022/08/09 11:15:17;;;;;;;0.50;0.40;;;24.60;92.90;;;;;;6165963;23;20131;-88
2022/08/09 11:17:46;;;;;;;0.77;0.50;;;24.80;92.70;;;;;;6190165;23;20020;-89
2022/08/09 11:20:37;;;;;;;0.20;0.20;;;25.00;93.00;;;;;;6166778;23;20042;-89
2022/08/09 11:23:04;;;;;;;0.20;0.20;;;25.20;92.40;;;;;;6163341;23;20467;-89
2022/08/09 11:25:38;;;;;;;0.32;0.32;;;25.30;92.40;;;;;;6168189;23;20332;-89
2022/08/09 11:28:37;;;;;;;0.52;0.30;;;25.50;91.80;;;;;;6175162;23;20039;-89
2022/08/09 11:31:48;;;;;;;0.43;0.25;;;25.60;90.30;;;;;;6198408;23;20305;-92
2022/08/09 11:34:55;;;;;;;0.22;0.22;;;25.80;90.30;;;;;;6172011;23;20074;-89
2022/08/09 11:37:25;;;;;;;0.30;0.30;;;26.00;90.10;;;;;;6043069;23;20033;-89
2022/08/09 11:40:07;;;;;;;0.40;0.30;;;26.20;88.70;;;;;;6162717;23;20047;-88
2022/08/09 11:42:47;;;;;;;0.55;0.50;;;26.30;87.90;;;;;;6162658;23;20502;-89
2022/08/09 11:45:22;;;;;;;0.40;0.40;;;26.50;87.40;;;;;;6187346;23;20023;-90
2022/08/09 11:48:18;;;;;;;0.20;0.20;;;26.70;87.60;;;;;;6174429;23;20031;-89
2022/08/09 11:50:55;;;;;;;0.30;0.30;;;26.90;85.50;;;;;;6188453;23;20039;-87
2022/08/09 11:53:43;;;;;;;0.40;0.40;;;27.10;84.60;;;;;;6216980;23;20024;-90
2022/08/09 11:56:29;;;;;;;0.32;0.32;;;27.40;85.00;;;;;;6172770;23;20382;-89
2022/08/09 11:59:25;;;;;;;0.63;0.50;;;27.60;83.80;;;;;;6187792;23;20020;-90
2022/08/09 12:02:00;;;;;;;0.93;0.50;;;27.90;81.70;;;;;;6209795;23;20019;-91
2022/08/09 12:04:50;;;;;;;0.73;0.60;;;28.10;81.20;;;;;;6181447;23;20198;-88
2022/08/09 12:07:28;;;;;;;0.40;0.40;;;28.40;81.40;;;;;;6193949;23;20392;-90
2022/08/09 12:10:09;;;;;;;0.60;0.60;;;28.60;79.90;;;;;;6171945;23;20016;-88
2022/08/09 12:12:56;;;;;;;0.75;0.50;;;28.90;78.50;;;;;;6175134;23;20060;-90
2022/08/09 12:15:25;;;;;;;0.50;0.50;;;29.40;77.80;;;;;;6188209;23;20023;-87
2022/08/09 12:18:19;;;;;;;0.43;0.40;;;29.60;76.80;;;;;;6177443;23;20031;-88
2022/08/09 12:21:01;;;;;;;0.65;0.50;;;29.70;77.20;;;;;;6191228;23;20031;-88
2022/08/09 12:23:49;;;;;;;0.63;0.50;;;29.90;77.00;;;;;;6180157;23;20109;-88
2022/08/09 12:26:44;;;;;;;0.57;0.50;;;29.80;76.60;;;;;;6177966;23;20479;-89
2022/08/09 12:29:31;;;;;;;0.55;0.30;;;30.10;76.50;;;;;;6195887;23;20178;-89
2022/08/09 12:32:25;;;;;;;0.38;0.38;;;30.30;75.70;;;;;;6174587;23;20105;-89
2022/08/09 12:35:00;;;;;;;0.73;0.40;;;30.80;73.70;;;;;;6164364;23;20460;-88
2022/08/09 12:37:36;;;;;;;0.50;0.50;;;31.20;73.70;;;;;;6163661;23;20088;-88
2022/08/09 12:40:17;;;;;;;0.50;0.32;;;31.50;73.20;;;;;;6193402;23;20031;-89
2022/08/09 12:42:45;;;;;;;0.75;0.40;;;31.80;72.40;;;;;;6187211;23;20043;-89
2022/08/09 12:45:15;;;;;;;2.47;0.57;;;31.70;72.70;;;;;;6191457;23;20098;-89
2022/08/09 12:48:01;;;;;;;1.10;0.60;;;31.70;71.40;;;;;;6173707;23;20016;-88
2022/08/09 12:50:28;;;;;;;0.38;0.38;;;32.00;70.70;;;;;;6163944;23;20081;-88
2022/08/09 12:52:56;;;;;;;0.98;0.50;;;32.10;70.20;;;;;;6163933;23;20123;-88
2022/08/09 12:55:44;;;;;;;0.82;0.60;;;32.50;69.60;;;;;;6181729;23;20031;-88
2022/08/09 12:58:31;;;;;;;0.52;0.40;;;32.70;69.00;;;;;;6186261;23;20162;-88
2022/08/09 13:01:00;;;;;;;0.30;0.30;;;32.80;68.80;;;;;;6171945;23;20513;-88
2022/08/09 13:03:39;;;;;;;0.93;0.55;;;32.90;67.70;;;;;;6176960;23;20027;-90
2022/08/09 13:06:32;;;;;;;0.40;0.40;;;32.60;67.40;;;;;;6193597;23;20012;-89
2022/08/09 13:09:11;;;;;;;0.30;0.30;;;33.10;67.30;;;;;;6206013;23;20070;-89
2022/08/09 13:11:41;;;;;;;0.30;0.30;;;33.10;67.30;;;;;;6203900;23;20103;-89
2022/08/09 13:14:10;;;;;;;0.32;0.32;;;33.20;66.40;;;;;;6180170;23;20072;-89
2022/08/09 13:17:13;;;;;;;0.45;0.40;;;33.10;66.20;;;;;;6180379;23;20166;-90
2022/08/09 13:19:45;;;;;;;0.40;0.40;;;33.10;65.90;;;;;;6200621;23;20020;-88
2022/08/09 13:22:33;;;;;;;0.32;0.28;;;33.30;65.60;;;;;;6183559;23;20054;-88
2022/08/09 13:25:21;;;;;;;0.38;0.38;;;33.30;65.10;;;;;;6177678;23;20055;-89
2022/08/09 13:27:48;;;;;;;0.57;0.57;;;34.00;64.50;;;;;;6164924;23;20115;-89
2022/08/09 13:30:22;;;;;;;0.40;0.40;;;34.10;63.20;;;;;;6171733;23;20260;-91
2022/08/09 13:33:23;;;;;;;0.93;0.50;;;34.10;63.20;;;;;;6194531;23;20044;-89
2022/08/09 13:36:13;;;;;;;0.55;0.50;;;33.90;62.50;;;;;;6196896;23;20012;-88
2022/08/09 13:39:04;;;;;;;0.40;0.40;;;34.30;62.10;;;;;;6221189;22;20020;-88
2022/08/09 13:42:01;;;;;;;0.65;0.50;;;34.60;61.50;;;;;;6200050;22;20034;-88
2022/08/09 13:44:32;;;;;;;0.82;0.60;;;34.30;61.30;;;;;;6227448;23;20076;-88
2022/08/09 13:47:00;;;;;;;0.50;0.50;;;34.40;60.80;;;;;;6177687;23;20016;-88
2022/08/09 13:49:48;;;;;;;0.82;0.65;;;34.30;61.10;;;;;;6205012;23;20292;-88
2022/08/09 13:52:27;;;;;;;0.50;0.50;;;34.80;60.20;;;;;;6173993;23;20023;-87
2022/08/09 13:54:55;;;;;;;1.17;0.55;;;34.90;59.30;;;;;;6174193;23;20024;-88
2022/08/09 13:57:29;;;;;;;0.52;0.50;;;34.80;59.20;;;;;;6201496;23;20116;-88
2022/08/09 14:00:14;;;;;;;0.75;0.52;;;35.30;59.00;;;;;;6201022;23;20051;-88
2022/08/09 14:02:47;;;;;;;0.25;0.20;;;35.20;58.40;;;;;;6175443;23;20355;-89
2022/08/09 14:05:36;;;;;;;0.75;0.40;;;35.60;58.60;;;;;;6185822;23;20111;-87